Terminal Aerodrome Forecast
Issued by NWS

Home | Current Version | Previous Version | Text Only | Print | Product List | Glossary On
Versions: 1 2 3 4 5 6 7 8 9 10 11 12 13 14 15 16 17 18 19
000
FTUS43 KDVN 022323
TAFBRL
TAF
KBRL 022323Z 0300/0324 20007KT P6SM SKC
     FM031000 19003KT 5SM BR SKC
     FM031500 21009KT P6SM FEW040 SCT120=

USA.gov is the U.S. government's official web portal to all federal, state and local government web resources and services.